sensor_id;sensor_type;location;lat;lon;timestamp;pressure;altitude;pressure_sealevel;temperature;humidity
58018;BME280;43810;50.860;19.226;2022-11-12T00:00:45;100135.75;;;4.86;84.86
58018;BME280;43810;50.860;19.226;2022-11-12T00:03:13;100133.16;;;4.91;84.50
58018;BME280;43810;50.860;19.226;2022-11-12T00:05:39;100137.91;;;4.94;84.55
58018;BME280;43810;50.860;19.226;2022-11-12T00:08:05;100136.59;;;4.91;84.50
58018;BME280;43810;50.860;19.226;2022-11-12T00:10:30;100143.16;;;4.84;84.89
58018;BME280;43810;50.860;19.226;2022-11-12T00:12:57;100142.63;;;4.87;85.11
58018;BME280;43810;50.860;19.226;2022-11-12T00:15:23;100141.03;;;4.81;85.03
58018;BME280;43810;50.860;19.226;2022-11-12T00:17:48;100138.38;;;4.76;85.16
58018;BME280;43810;50.860;19.226;2022-11-12T00:20:14;100158.66;;;4.75;85.62
58018;BME280;43810;50.860;19.226;2022-11-12T00:22:40;100149.16;;;4.74;85.68
58018;BME280;43810;50.860;19.226;2022-11-12T00:25:06;100148.44;;;4.84;85.43
58018;BME280;43810;50.860;19.226;2022-11-12T00:27:32;100142.63;;;4.87;85.51
58018;BME280;43810;50.860;19.226;2022-11-12T00:29:58;100141.88;;;4.96;85.33
58018;BME280;43810;50.860;19.226;2022-11-12T00:32:24;100150.06;;;4.95;85.44
58018;BME280;43810;50.860;19.226;2022-11-12T00:34:50;100154.25;;;4.91;85.63
58018;BME280;43810;50.860;19.226;2022-11-12T00:37:15;100151.63;;;4.91;85.63
58018;BME280;43810;50.860;19.226;2022-11-12T00:39:41;100157.66;;;4.81;85.77
58018;BME280;43810;50.860;19.226;2022-11-12T00:42:07;100160.03;;;4.88;85.46
58018;BME280;43810;50.860;19.226;2022-11-12T00:44:33;100161.88;;;4.82;85.99
58018;BME280;43810;50.860;19.226;2022-11-12T00:46:59;100165.31;;;4.83;85.61
58018;BME280;43810;50.860;19.226;2022-11-12T00:49:24;100151.34;;;4.82;85.66
58018;BME280;43810;50.860;19.226;2022-11-12T00:51:50;100150.00;;;4.85;85.39
58018;BME280;43810;50.860;19.226;2022-11-12T00:54:16;100156.31;;;4.79;85.33
58018;BME280;43810;50.860;19.226;2022-11-12T00:56:42;100143.91;;;4.69;85.98
58018;BME280;43810;50.860;19.226;2022-11-12T00:59:07;100162.34;;;4.69;86.32
58018;BME280;43810;50.860;19.226;2022-11-12T01:01:33;100145.69;;;4.63;86.00
58018;BME280;43810;50.860;19.226;2022-11-12T01:03:59;100158.91;;;4.68;86.17
58018;BME280;43810;50.860;19.226;2022-11-12T01:06:25;100160.47;;;4.59;86.47
58018;BME280;43810;50.860;19.226;2022-11-12T01:08:51;100153.59;;;4.63;85.98
58018;BME280;43810;50.860;19.226;2022-11-12T01:11:24;100153.34;;;4.60;85.96
58018;BME280;43810;50.860;19.226;2022-11-12T01:13:58;100154.09;;;4.55;86.03
58018;BME280;43810;50.860;19.226;2022-11-12T01:16:27;100154.06;;;4.50;86.72
58018;BME280;43810;50.860;19.226;2022-11-12T01:18:56;100151.19;;;4.52;86.26
58018;BME280;43810;50.860;19.226;2022-11-12T01:21:28;100151.16;;;4.47;86.51
58018;BME280;43810;50.860;19.226;2022-11-12T01:23:56;100144.06;;;4.47;86.31
58018;BME280;43810;50.860;19.226;2022-11-12T01:26:22;100151.97;;;4.52;85.94
58018;BME280;43810;50.860;19.226;2022-11-12T01:28:48;100151.13;;;4.42;86.35
58018;BME280;43810;50.860;19.226;2022-11-12T01:31:18;100158.97;;;4.31;86.50
58018;BME280;43810;50.860;19.226;2022-11-12T01:33:46;100153.97;;;4.30;86.27
58018;BME280;43810;50.860;19.226;2022-11-12T01:36:13;100158.97;;;4.31;86.61
58018;BME280;43810;50.860;19.226;2022-11-12T01:38:41;100156.34;;;4.31;86.71
58018;BME280;43810;50.860;19.226;2022-11-12T01:41:10;100148.13;;;4.23;87.07
58018;BME280;43810;50.860;19.226;2022-11-12T01:43:36;100146.53;;;4.22;87.14
58018;BME280;43810;50.860;19.226;2022-11-12T01:46:05;100151.81;;;4.22;86.81
58018;BME280;43810;50.860;19.226;2022-11-12T01:48:52;100155.50;;;4.21;86.71
58018;BME280;43810;50.860;19.226;2022-11-12T01:51:21;100156.78;;;4.18;87.15
58018;BME280;43810;50.860;19.226;2022-11-12T01:53:50;100158.56;;;4.08;87.23
58018;BME280;43810;50.860;19.226;2022-11-12T01:56:20;100157.03;;;4.12;87.15
58018;BME280;43810;50.860;19.226;2022-11-12T01:58:48;100165.41;;;4.04;87.29
58018;BME280;43810;50.860;19.226;2022-11-12T02:01:15;100163.09;;;4.12;87.23
58018;BME280;43810;50.860;19.226;2022-11-12T02:03:41;100164.44;;;4.15;87.05
58018;BME280;43810;50.860;19.226;2022-11-12T02:06:10;100163.09;;;4.12;87.00
58018;BME280;43810;50.860;19.226;2022-11-12T02:08:36;100157.53;;;4.09;87.35
58018;BME280;43810;50.860;19.226;2022-11-12T02:11:15;100154.06;;;4.03;87.36
58018;BME280;43810;50.860;19.226;2022-11-12T02:13:43;100146.41;;;4.02;87.42
58018;BME280;43810;50.860;19.226;2022-11-12T02:16:25;100153.78;;;3.99;87.17
58018;BME280;43810;50.860;19.226;2022-11-12T02:18:51;100148.81;;;4.03;87.15
58018;BME280;43810;50.860;19.226;2022-11-12T02:21:19;100154.63;;;4.10;87.16
58018;BME280;43810;50.860;19.226;2022-11-12T02:23:45;100151.47;;;4.08;86.85
58018;BME280;43810;50.860;19.226;2022-11-12T02:26:10;100152.47;;;4.02;87.07
58018;BME280;43810;50.860;19.226;2022-11-12T02:28:36;100157.16;;;3.95;87.36
58018;BME280;43810;50.860;19.226;2022-11-12T02:31:02;100155.06;;;3.97;87.16
58018;BME280;43810;50.860;19.226;2022-11-12T02:33:28;100154.28;;;3.96;87.38
58018;BME280;43810;50.860;19.226;2022-11-12T02:35:53;100168.47;;;3.90;87.88
58018;BME280;43810;50.860;19.226;2022-11-12T02:38:19;100165.22;;;3.83;87.51
58018;BME280;43810;50.860;19.226;2022-11-12T02:40:45;100162.66;;;3.88;87.71
58018;BME280;43810;50.860;19.226;2022-11-12T02:43:10;100168.72;;;3.94;87.56
58018;BME280;43810;50.860;19.226;2022-11-12T02:45:36;100158.72;;;3.91;87.68
58018;BME280;43810;50.860;19.226;2022-11-12T02:48:02;100151.88;;;3.95;87.09
58018;BME280;43810;50.860;19.226;2022-11-12T02:50:28;100150.59;;;3.97;87.20
58018;BME280;43810;50.860;19.226;2022-11-12T02:52:53;100141.28;;;3.85;87.14
58018;BME280;43810;50.860;19.226;2022-11-12T02:55:19;100152.91;;;3.89;87.39
58018;BME280;43810;50.860;19.226;2022-11-12T02:57:45;100151.31;;;3.88;86.98
58018;BME280;43810;50.860;19.226;2022-11-12T03:00:12;100150.47;;;3.82;87.09
58018;BME280;43810;50.860;19.226;2022-11-12T03:02:38;100152.84;;;3.84;86.95
58018;BME280;43810;50.860;19.226;2022-11-12T03:05:28;100153.63;;;3.79;87.14
58018;BME280;43810;50.860;19.226;2022-11-12T03:07:56;100153.09;;;3.77;86.76
58018;BME280;43810;50.860;19.226;2022-11-12T03:10:23;100160.97;;;3.77;86.77
58018;BME280;43810;50.860;19.226;2022-11-12T03:12:49;100159.38;;;3.76;86.62
58018;BME280;43810;50.860;19.226;2022-11-12T03:15:15;100160.22;;;3.82;86.53
58018;BME280;43810;50.860;19.226;2022-11-12T03:17:42;100157.25;;;3.73;86.55
58018;BME280;43810;50.860;19.226;2022-11-12T03:20:09;100154.84;;;3.67;87.02
58018;BME280;43810;50.860;19.226;2022-11-12T03:22:36;100160.84;;;3.62;87.12
58018;BME280;43810;50.860;19.226;2022-11-12T03:25:03;100161.69;;;3.68;86.58
58018;BME280;43810;50.860;19.226;2022-11-12T03:27:29;100158.25;;;3.67;86.34
58018;BME280;43810;50.860;19.226;2022-11-12T03:29:55;100156.63;;;3.61;86.54
58018;BME280;43810;50.860;19.226;2022-11-12T03:32:20;100167.69;;;3.63;86.23
58018;BME280;43810;50.860;19.226;2022-11-12T03:34:46;100161.38;;;3.64;86.13
58018;BME280;43810;50.860;19.226;2022-11-12T03:37:12;100164.03;;;3.64;86.21
58018;BME280;43810;50.860;19.226;2022-11-12T03:39:37;100162.34;;;3.53;86.19
58018;BME280;43810;50.860;19.226;2022-11-12T03:42:03;100161.78;;;3.51;86.48
58018;BME280;43810;50.860;19.226;2022-11-12T03:44:29;100161.75;;;3.46;86.57
58018;BME280;43810;50.860;19.226;2022-11-12T03:46:55;100160.66;;;3.42;86.62
58018;BME280;43810;50.860;19.226;2022-11-12T03:49:20;100164.78;;;3.33;86.80
58018;BME280;43810;50.860;19.226;2022-11-12T03:51:46;100162.09;;;3.27;87.37
58018;BME280;43810;50.860;19.226;2022-11-12T03:54:12;100155.25;;;3.26;87.48
58018;BME280;43810;50.860;19.226;2022-11-12T03:56:38;100157.38;;;3.30;87.31
58018;BME280;43810;50.860;19.226;2022-11-12T03:59:03;100150.28;;;3.30;87.57
58018;BME280;43810;50.860;19.226;2022-11-12T04:01:29;100155.78;;;3.28;87.40
58018;BME280;43810;50.860;19.226;2022-11-12T04:03:55;100152.91;;;3.30;87.34
58018;BME280;43810;50.860;19.226;2022-11-12T04:06:21;100157.59;;;3.23;87.10
58018;BME280;43810;50.860;19.226;2022-11-12T04:09:05;100149.94;;;3.21;87.06
58018;BME280;43810;50.860;19.226;2022-11-12T04:11:31;100145.97;;;3.19;86.90
58018;BME280;43810;50.860;19.226;2022-11-12T04:13:56;100153.88;;;3.24;86.93
58018;BME280;43810;50.860;19.226;2022-11-12T04:16:22;100155.47;;;3.25;87.08
58018;BME280;43810;50.860;19.226;2022-11-12T04:19:10;100149.97;;;3.26;86.93
58018;BME280;43810;50.860;19.226;2022-11-12T04:22:07;100148.91;;;3.22;87.05
58018;BME280;43810;50.860;19.226;2022-11-12T04:24:37;100146.00;;;3.24;86.90
58018;BME280;43810;50.860;19.226;2022-11-12T04:27:28;100135.19;;;3.20;87.24
58018;BME280;43810;50.860;19.226;2022-11-12T04:29:54;100148.03;;;3.17;86.98
58018;BME280;43810;50.860;19.226;2022-11-12T04:32:52;100145.63;;;3.10;86.81
58018;BME280;43810;50.860;19.226;2022-11-12T04:35:22;100138.78;;;3.09;87.25
58018;BME280;43810;50.860;19.226;2022-11-12T04:37:49;100143.16;;;3.04;87.30
58018;BME280;43810;50.860;19.226;2022-11-12T04:40:20;100147.34;;;3.00;87.12
58018;BME280;43810;50.860;19.226;2022-11-12T04:43:07;100144.50;;;3.06;87.20
58018;BME280;43810;50.860;19.226;2022-11-12T04:45:52;100136.03;;;2.99;87.35
58018;BME280;43810;50.860;19.226;2022-11-12T04:48:20;100128.97;;;3.05;87.49
58018;BME280;43810;50.860;19.226;2022-11-12T04:50:49;100136.38;;;3.08;86.75
58018;BME280;43810;50.860;19.226;2022-11-12T04:53:17;100137.00;;;2.93;87.15
58018;BME280;43810;50.860;19.226;2022-11-12T04:55:43;100132.78;;;2.92;87.37
58018;BME280;43810;50.860;19.226;2022-11-12T04:58:09;100127.03;;;2.95;87.33
58018;BME280;43810;50.860;19.226;2022-11-12T05:00:35;100121.31;;;3.03;87.08
58018;BME280;43810;50.860;19.226;2022-11-12T05:03:00;100122.75;;;3.11;86.53
58018;BME280;43810;50.860;19.226;2022-11-12T05:05:26;100122.44;;;3.07;86.71
58018;BME280;43810;50.860;19.226;2022-11-12T05:07:52;100131.00;;;2.98;86.57
58018;BME280;43810;50.860;19.226;2022-11-12T05:10:18;100115.53;;;2.79;87.24
58018;BME280;43810;50.860;19.226;2022-11-12T05:12:43;100120.53;;;2.76;87.71
58018;BME280;43810;50.860;19.226;2022-11-12T05:15:10;100127.91;;;2.79;87.48
58018;BME280;43810;50.860;19.226;2022-11-12T05:17:42;100120.91;;;2.89;87.15
58018;BME280;43810;50.860;19.226;2022-11-12T05:20:09;100121.19;;;2.88;87.22
58018;BME280;43810;50.860;19.226;2022-11-12T05:22:35;100123.81;;;2.88;87.15
58018;BME280;43810;50.860;19.226;2022-11-12T05:25:01;100125.81;;;2.81;87.29
58018;BME280;43810;50.860;19.226;2022-11-12T05:27:27;100133.09;;;2.74;87.18
58018;BME280;43810;50.860;19.226;2022-11-12T05:29:52;100131.63;;;2.61;87.21
58018;BME280;43810;50.860;19.226;2022-11-12T05:32:18;100138.88;;;2.54;87.44
58018;BME280;43810;50.860;19.226;2022-11-12T05:34:44;100146.41;;;2.45;87.40
58018;BME280;43810;50.860;19.226;2022-11-12T05:37:12;100146.84;;;2.37;87.70
58018;BME280;43810;50.860;19.226;2022-11-12T05:39:37;100147.94;;;2.41;87.71
58018;BME280;43810;50.860;19.226;2022-11-12T05:42:03;100145.56;;;2.40;87.97
58018;BME280;43810;50.860;19.226;2022-11-12T05:44:30;100154.28;;;2.45;87.64
58018;BME280;43810;50.860;19.226;2022-11-12T05:46:56;100152.94;;;2.43;87.46
58018;BME280;43810;50.860;19.226;2022-11-12T05:49:22;100154.91;;;2.31;87.75
58018;BME280;43810;50.860;19.226;2022-11-12T05:51:47;100155.44;;;2.33;87.80
58018;BME280;43810;50.860;19.226;2022-11-12T05:54:13;100162.28;;;2.34;87.85
58018;BME280;43810;50.860;19.226;2022-11-12T05:56:39;100163.94;;;2.40;87.69
58018;BME280;43810;50.860;19.226;2022-11-12T05:59:07;100159.97;;;2.37;87.47
58018;BME280;43810;50.860;19.226;2022-11-12T06:01:34;100163.88;;;2.35;87.83
58018;BME280;43810;50.860;19.226;2022-11-12T06:04:14;100168.88;;;2.36;87.85
58018;BME280;43810;50.860;19.226;2022-11-12T06:06:41;100175.34;;;2.29;88.38
58018;BME280;43810;50.860;19.226;2022-11-12T06:09:08;100173.53;;;2.29;88.28
58018;BME280;43810;50.860;19.226;2022-11-12T06:11:34;100175.50;;;2.39;88.23
58018;BME280;43810;50.860;19.226;2022-11-12T06:14:01;100178.53;;;2.31;88.19
58018;BME280;43810;50.860;19.226;2022-11-12T06:16:27;100181.22;;;2.36;88.54
58018;BME280;43810;50.860;19.226;2022-11-12T06:18:53;100173.16;;;2.42;88.46
58018;BME280;43810;50.860;19.226;2022-11-12T06:21:19;100189.78;;;2.48;88.25
58018;BME280;43810;50.860;19.226;2022-11-12T06:23:48;100191.31;;;2.44;88.49
58018;BME280;43810;50.860;19.226;2022-11-12T06:26:15;100194.06;;;2.54;88.57
58018;BME280;43810;50.860;19.226;2022-11-12T06:28:41;100198.03;;;2.73;88.65
58018;BME280;43810;50.860;19.226;2022-11-12T06:31:06;100195.28;;;2.85;88.28
58018;BME280;43810;50.860;19.226;2022-11-12T06:33:32;100211.41;;;2.94;87.89
58018;BME280;43810;50.860;19.226;2022-11-12T06:35:59;100192.34;;;3.03;87.29
58018;BME280;43810;50.860;19.226;2022-11-12T06:38:29;100198.06;;;3.00;87.46
58018;BME280;43810;50.860;19.226;2022-11-12T06:40:55;100210.63;;;3.15;87.33
58018;BME280;43810;50.860;19.226;2022-11-12T06:43:21;100208.75;;;3.10;87.10
58018;BME280;43810;50.860;19.226;2022-11-12T06:45:47;100210.50;;;3.05;87.41
58018;BME280;43810;50.860;19.226;2022-11-12T06:48:13;100209.94;;;3.24;87.42
58018;BME280;43810;50.860;19.226;2022-11-12T06:50:38;100211.03;;;3.28;86.63
58018;BME280;43810;50.860;19.226;2022-11-12T06:53:05;100209.44;;;3.27;87.03
58018;BME280;43810;50.860;19.226;2022-11-12T06:55:30;100207.53;;;3.45;86.66
58018;BME280;43810;50.860;19.226;2022-11-12T06:57:56;100206.38;;;3.62;85.81
58018;BME280;43810;50.860;19.226;2022-11-12T07:00:22;100202.00;;;3.73;85.17
58018;BME280;43810;50.860;19.226;2022-11-12T07:02:48;100211.50;;;3.74;85.22
58018;BME280;43810;50.860;19.226;2022-11-12T07:05:14;100210.50;;;3.80;84.98
58018;BME280;43810;50.860;19.226;2022-11-12T07:07:40;100211.59;;;3.84;85.17
58018;BME280;43810;50.860;19.226;2022-11-12T07:10:06;100211.16;;;3.97;84.47
58018;BME280;43810;50.860;19.226;2022-11-12T07:12:31;100208.00;;;3.95;84.96
58018;BME280;43810;50.860;19.226;2022-11-12T07:14:57;100211.75;;;4.05;84.56
58018;BME280;43810;50.860;19.226;2022-11-12T07:17:23;100212.09;;;4.13;84.36
58018;BME280;43810;50.860;19.226;2022-11-12T07:19:49;100199.25;;;4.27;84.23
58018;BME280;43810;50.860;19.226;2022-11-12T07:22:15;100210.41;;;4.34;83.76
58018;BME280;43810;50.860;19.226;2022-11-12T07:24:41;100211.78;;;4.47;82.95
58018;BME280;43810;50.860;19.226;2022-11-12T07:27:06;100211.78;;;4.47;82.84
58018;BME280;43810;50.860;19.226;2022-11-12T07:29:32;100213.16;;;4.54;83.13
58018;BME280;43810;50.860;19.226;2022-11-12T07:31:58;100210.81;;;4.63;83.08
58018;BME280;43810;50.860;19.226;2022-11-12T07:34:23;100220.38;;;4.69;82.97
58018;BME280;43810;50.860;19.226;2022-11-12T07:36:49;100218.03;;;4.78;82.00
58018;BME280;43810;50.860;19.226;2022-11-12T07:39:19;100214.13;;;4.90;82.32
58018;BME280;43810;50.860;19.226;2022-11-12T07:41:45;100218.69;;;5.10;82.43
58018;BME280;43810;50.860;19.226;2022-11-12T07:44:10;100208.19;;;5.25;82.28
58018;BME280;43810;50.860;19.226;2022-11-12T07:46:36;100206.09;;;5.32;82.14
58018;BME280;43810;50.860;19.226;2022-11-12T07:49:02;100205.88;;;5.54;81.16
58018;BME280;43810;50.860;19.226;2022-11-12T07:51:28;100206.16;;;5.68;81.41
58018;BME280;43810;50.860;19.226;2022-11-12T07:53:56;100203.81;;;5.87;80.98
58018;BME280;43810;50.860;19.226;2022-11-12T07:56:23;100208.06;;;6.18;80.26
58018;BME280;43810;50.860;19.226;2022-11-12T07:58:50;100220.22;;;6.34;79.19
58018;BME280;43810;50.860;19.226;2022-11-12T08:03:55;100220.44;;;6.53;78.43
58018;BME280;43810;50.860;19.226;2022-11-12T08:06:22;100220.69;;;6.67;78.25
58018;BME280;43810;50.860;19.226;2022-11-12T08:08:52;100221.44;;;6.82;77.97
58018;BME280;43810;50.860;19.226;2022-11-12T08:11:18;100232.22;;;6.96;77.94
58018;BME280;43810;50.860;19.226;2022-11-12T08:13:43;100222.91;;;7.14;77.23
58018;BME280;43810;50.860;19.226;2022-11-12T08:16:09;100227.38;;;7.18;77.33
58018;BME280;43810;50.860;19.226;2022-11-12T08:18:35;100230.28;;;7.22;77.03
58018;BME280;43810;50.860;19.226;2022-11-12T08:21:02;100227.63;;;7.22;76.88
58018;BME280;43810;50.860;19.226;2022-11-12T08:23:29;100234.56;;;7.08;77.45
58018;BME280;43810;50.860;19.226;2022-11-12T08:26:02;100237.25;;;7.03;77.92
58018;BME280;43810;50.860;19.226;2022-11-12T08:28:30;100236.38;;;7.17;77.51
58018;BME280;43810;50.860;19.226;2022-11-12T08:30:57;100230.28;;;7.22;77.27
58018;BME280;43810;50.860;19.226;2022-11-12T08:33:28;100230.56;;;7.20;77.21
58018;BME280;43810;50.860;19.226;2022-11-12T08:35:54;100233.97;;;7.26;77.63
58018;BME280;43810;50.860;19.226;2022-11-12T08:38:21;100228.09;;;7.34;78.03
58018;BME280;43810;50.860;19.226;2022-11-12T08:40:46;100236.53;;;7.46;77.89
58018;BME280;43810;50.860;19.226;2022-11-12T08:43:12;100226.91;;;7.60;77.41
58018;BME280;43810;50.860;19.226;2022-11-12T08:45:40;100234.19;;;7.79;77.29
58018;BME280;43810;50.860;19.226;2022-11-12T08:48:09;100239.94;;;7.91;76.94
58018;BME280;43810;50.860;19.226;2022-11-12T08:50:36;100239.69;;;7.92;76.08
58018;BME280;43810;50.860;19.226;2022-11-12T08:53:05;100246.22;;;8.00;75.96
58018;BME280;43810;50.860;19.226;2022-11-12T08:55:34;100247.03;;;8.00;76.28
58018;BME280;43810;50.860;19.226;2022-11-12T08:58:01;100254.69;;;8.07;75.96
58018;BME280;43810;50.860;19.226;2022-11-12T09:00:33;100249.03;;;8.19;76.55
58018;BME280;43810;50.860;19.226;2022-11-12T09:03:01;100255.97;;;8.10;75.76
58018;BME280;43810;50.860;19.226;2022-11-12T09:05:29;100247.47;;;8.13;76.53
58018;BME280;43810;50.860;19.226;2022-11-12T09:08:07;100262.28;;;8.19;76.58
58018;BME280;43810;50.860;19.226;2022-11-12T09:10:33;100261.94;;;8.25;76.26
58018;BME280;43810;50.860;19.226;2022-11-12T09:13:01;100264.72;;;8.44;76.30
58018;BME280;43810;50.860;19.226;2022-11-12T09:15:27;100263.44;;;8.70;75.97
58018;BME280;43810;50.860;19.226;2022-11-12T09:17:58;100252.81;;;8.94;76.09
58018;BME280;43810;50.860;19.226;2022-11-12T09:20:25;100261.09;;;9.12;74.62
58018;BME280;43810;50.860;19.226;2022-11-12T09:22:51;100265.84;;;9.15;74.03
58018;BME280;43810;50.860;19.226;2022-11-12T09:25:17;100268.41;;;9.01;74.95
58018;BME280;43810;50.860;19.226;2022-11-12T09:27:44;100265.72;;;8.77;75.82
58018;BME280;43810;50.860;19.226;2022-11-12T09:30:09;100266.31;;;8.74;76.75
58018;BME280;43810;50.860;19.226;2022-11-12T09:32:36;100258.66;;;8.96;76.71
58018;BME280;43810;50.860;19.226;2022-11-12T09:35:02;100260.44;;;9.01;76.52
58018;BME280;43810;50.860;19.226;2022-11-12T09:37:28;100262.03;;;9.02;76.35
58018;BME280;43810;50.860;19.226;2022-11-12T09:39:53;100256.50;;;8.98;76.20
58018;BME280;43810;50.860;19.226;2022-11-12T09:42:21;100262.81;;;9.02;76.26
58018;BME280;43810;50.860;19.226;2022-11-12T09:45:12;100262.38;;;8.95;76.22
58018;BME280;43810;50.860;19.226;2022-11-12T09:47:50;100260.03;;;8.89;76.32
58018;BME280;43810;50.860;19.226;2022-11-12T09:50:29;100253.88;;;8.69;78.34
58018;BME280;43810;50.860;19.226;2022-11-12T09:53:03;100259.97;;;8.70;77.93
58018;BME280;43810;50.860;19.226;2022-11-12T09:55:33;100266.88;;;8.71;77.97
58018;BME280;43810;50.860;19.226;2022-11-12T09:58:00;100260.91;;;8.55;78.59
58018;BME280;43810;50.860;19.226;2022-11-12T10:00:27;100266.22;;;8.55;78.88
58018;BME280;43810;50.860;19.226;2022-11-12T10:03:02;100272.03;;;8.57;78.75
58018;BME280;43810;50.860;19.226;2022-11-12T10:05:35;100264.69;;;8.49;79.18
58018;BME280;43810;50.860;19.226;2022-11-12T10:10:47;100263.50;;;8.31;79.75
58018;BME280;43810;50.860;19.226;2022-11-12T10:16:04;100277.56;;;8.32;80.35
58018;BME280;43810;50.860;19.226;2022-11-12T10:21:34;100272.09;;;8.18;80.47
58018;BME280;43810;50.860;19.226;2022-11-12T10:24:02;100272.88;;;8.19;80.60
58018;BME280;43810;50.860;19.226;2022-11-12T10:26:36;100273.16;;;8.17;80.75
58018;BME280;43810;50.860;19.226;2022-11-12T10:31:46;100278.59;;;8.31;80.69
58018;BME280;43810;50.860;19.226;2022-11-12T10:36:39;100270.44;;;8.27;80.29
58018;BME280;43810;50.860;19.226;2022-11-12T10:39:07;100282.41;;;8.20;80.34
58018;BME280;43810;50.860;19.226;2022-11-12T10:41:33;100279.13;;;8.38;80.16
58018;BME280;43810;50.860;19.226;2022-11-12T10:44:04;100278.09;;;8.29;79.59
58018;BME280;43810;50.860;19.226;2022-11-12T10:46:33;100278.13;;;8.24;80.58
58018;BME280;43810;50.860;19.226;2022-11-12T10:49:22;100276.19;;;8.40;81.08
58018;BME280;43810;50.860;19.226;2022-11-12T10:51:54;100266.19;;;8.60;80.27
58018;BME280;43810;50.860;19.226;2022-11-12T10:54:35;100268.69;;;8.76;78.59
58018;BME280;43810;50.860;19.226;2022-11-12T10:57:22;100268.38;;;8.77;78.99
58018;BME280;43810;50.860;19.226;2022-11-12T11:00:17;100273.75;;;8.72;79.15
58018;BME280;43810;50.860;19.226;2022-11-12T11:02:50;100269.50;;;8.76;79.70
58018;BME280;43810;50.860;19.226;2022-11-12T11:05:47;100267.28;;;8.83;78.54
58018;BME280;43810;50.860;19.226;2022-11-12T11:08:31;100280.66;;;8.73;78.47
58018;BME280;43810;50.860;19.226;2022-11-12T11:13:44;100265.81;;;8.72;79.19
58018;BME280;43810;50.860;19.226;2022-11-12T11:16:18;100264.34;;;8.56;78.69
58018;BME280;43810;50.860;19.226;2022-11-12T11:18:48;100252.16;;;8.55;79.48
58018;BME280;43810;50.860;19.226;2022-11-12T11:24:24;100265.25;;;8.46;78.90
58018;BME280;43810;50.860;19.226;2022-11-12T11:38:20;100267.63;;;8.77;79.48
58018;BME280;43810;50.860;19.226;2022-11-12T11:49:50;100255.38;;;8.52;79.36
58018;BME280;43810;50.860;19.226;2022-11-12T11:58:03;100266.41;;;8.64;78.88
58018;BME280;43810;50.860;19.226;2022-11-12T12:03:23;100261.41;;;8.86;78.57
58018;BME280;43810;50.860;19.226;2022-11-12T12:06:05;100258.69;;;8.91;78.22
58018;BME280;43810;50.860;19.226;2022-11-12T12:09:14;100257.06;;;8.95;76.82
58018;BME280;43810;50.860;19.226;2022-11-12T12:11:54;100246.44;;;8.95;77.21
58018;BME280;43810;50.860;19.226;2022-11-12T12:22:18;100258.78;;;8.57;78.81
58018;BME280;43810;50.860;19.226;2022-11-12T12:25:17;100257.09;;;8.66;79.00
58018;BME280;43810;50.860;19.226;2022-11-12T12:27:49;100254.63;;;8.75;78.44
58018;BME280;43810;50.860;19.226;2022-11-12T12:30:23;100250.31;;;8.79;78.30
58018;BME280;43810;50.860;19.226;2022-11-12T12:32:56;100248.19;;;8.81;77.90
58018;BME280;43810;50.860;19.226;2022-11-12T12:35:33;100245.00;;;8.79;77.10
58018;BME280;43810;50.860;19.226;2022-11-12T12:38:11;100250.38;;;8.74;77.44
58018;BME280;43810;50.860;19.226;2022-11-12T12:40:51;100252.09;;;8.65;77.99
58018;BME280;43810;50.860;19.226;2022-11-12T12:43:40;100251.09;;;8.56;78.72
58018;BME280;43810;50.860;19.226;2022-11-12T12:46:10;100250.38;;;8.50;78.99
58018;BME280;43810;50.860;19.226;2022-11-12T12:48:40;100244.25;;;8.50;79.78
58018;BME280;43810;50.860;19.226;2022-11-12T12:51:06;100250.09;;;8.52;79.27
58018;BME280;43810;50.860;19.226;2022-11-12T12:53:34;100244.25;;;8.50;79.31
58018;BME280;43810;50.860;19.226;2022-11-12T12:56:03;100245.88;;;8.46;78.74
58018;BME280;43810;50.860;19.226;2022-11-12T13:03:57;100247.84;;;8.35;79.42
58018;BME280;43810;50.860;19.226;2022-11-12T13:06:31;100239.84;;;8.40;79.25
58018;BME280;43810;50.860;19.226;2022-11-12T13:09:23;100249.94;;;8.38;79.20
58018;BME280;43810;50.860;19.226;2022-11-12T13:11:52;100244.66;;;8.33;79.54
58018;BME280;43810;50.860;19.226;2022-11-12T13:17:09;100242.22;;;8.42;79.92
58018;BME280;43810;50.860;19.226;2022-11-12T13:25:04;100234.31;;;8.37;79.88
58018;BME280;43810;50.860;19.226;2022-11-12T13:32:55;100229.84;;;8.27;80.03
58018;BME280;43810;50.860;19.226;2022-11-12T13:35:27;100233.38;;;8.17;80.67
58018;BME280;43810;50.860;19.226;2022-11-12T13:45:39;100237.28;;;8.25;80.72
58018;BME280;43810;50.860;19.226;2022-11-12T13:48:13;100234.41;;;8.21;80.71
58018;BME280;43810;50.860;19.226;2022-11-12T13:50:40;100219.84;;;8.19;81.11
58018;BME280;43810;50.860;19.226;2022-11-12T13:53:10;100224.63;;;8.17;80.86
58018;BME280;43810;50.860;19.226;2022-11-12T13:55:50;100213.09;;;7.97;81.37
58018;BME280;43810;50.860;19.226;2022-11-12T13:58:35;100228.00;;;7.93;82.08
58018;BME280;43810;50.860;19.226;2022-11-12T14:01:03;100222.66;;;7.98;81.64
58018;BME280;43810;50.860;19.226;2022-11-12T14:06:15;100222.97;;;7.92;82.10
58018;BME280;43810;50.860;19.226;2022-11-12T14:08:45;100218.56;;;7.82;82.30
58018;BME280;43810;50.860;19.226;2022-11-12T14:11:47;100218.28;;;7.84;82.58
58018;BME280;43810;50.860;19.226;2022-11-12T14:17:22;100222.19;;;7.91;81.89
58018;BME280;43810;50.860;19.226;2022-11-12T14:22:41;100207.72;;;7.74;82.23
58018;BME280;43810;50.860;19.226;2022-11-12T14:25:17;100213.94;;;7.59;82.68
58018;BME280;43810;50.860;19.226;2022-11-12T14:27:45;100222.41;;;7.61;82.73
58018;BME280;43810;50.860;19.226;2022-11-12T14:30:19;100212.16;;;7.49;83.43
58018;BME280;43810;50.860;19.226;2022-11-12T14:32:57;100211.63;;;7.42;83.81
58018;BME280;43810;50.860;19.226;2022-11-12T14:37:56;100216.34;;;7.50;83.67